sensor_id;sensor_type;location;lat;lon;timestamp;P1;durP1;ratioP1;P2;durP2;ratioP2
72547;SDS011;60570;50.848;6.776;2022-12-11T00:00:53;31.35;;;15.43;;
72547;SDS011;60570;50.848;6.776;2022-12-11T00:01:54;31.95;;;15.20;;
72547;SDS011;60570;50.848;6.776;2022-12-11T00:02:54;30.95;;;14.60;;
72547;SDS011;60570;50.848;6.776;2022-12-11T00:03:55;31.17;;;15.15;;
72547;SDS011;60570;50.848;6.776;2022-12-11T00:04:56;29.05;;;13.68;;
72547;SDS011;60570;50.848;6.776;2022-12-11T00:05:56;30.15;;;14.18;;
72547;SDS011;60570;50.848;6.776;2022-12-11T00:06:56;29.88;;;14.15;;
72547;SDS011;60570;50.848;6.776;2022-12-11T00:07:57;31.92;;;15.18;;
72547;SDS011;60570;50.848;6.776;2022-12-11T00:08:58;36.30;;;16.08;;
72547;SDS011;60570;50.848;6.776;2022-12-11T00:09:58;31.85;;;15.05;;
72547;SDS011;60570;50.848;6.776;2022-12-11T00:10:58;28.35;;;13.88;;
72547;SDS011;60570;50.848;6.776;2022-12-11T00:11:59;29.80;;;14.60;;
72547;SDS011;60570;50.848;6.776;2022-12-11T00:13:01;33.35;;;16.05;;
72547;SDS011;60570;50.848;6.776;2022-12-11T00:14:02;30.60;;;14.88;;
72547;SDS011;60570;50.848;6.776;2022-12-11T00:15:02;30.45;;;15.25;;
72547;SDS011;60570;50.848;6.776;2022-12-11T00:16:03;28.33;;;14.57;;
72547;SDS011;60570;50.848;6.776;2022-12-11T00:17:03;29.20;;;14.88;;
72547;SDS011;60570;50.848;6.776;2022-12-11T00:18:04;32.50;;;16.08;;
72547;SDS011;60570;50.848;6.776;2022-12-11T00:19:04;30.85;;;15.20;;
72547;SDS011;60570;50.848;6.776;2022-12-11T00:20:05;34.08;;;15.45;;
72547;SDS011;60570;50.848;6.776;2022-12-11T00:21:07;29.85;;;13.77;;
72547;SDS011;60570;50.848;6.776;2022-12-11T00:22:11;31.75;;;14.18;;
72547;SDS011;60570;50.848;6.776;2022-12-11T00:23:11;33.28;;;15.75;;
72547;SDS011;60570;50.848;6.776;2022-12-11T00:24:11;30.40;;;14.85;;
72547;SDS011;60570;50.848;6.776;2022-12-11T00:25:12;28.88;;;14.68;;
72547;SDS011;60570;50.848;6.776;2022-12-11T00:26:13;27.98;;;14.40;;
72547;SDS011;60570;50.848;6.776;2022-12-11T00:27:14;33.65;;;15.13;;
72547;SDS011;60570;50.848;6.776;2022-12-11T00:28:15;29.73;;;14.82;;
72547;SDS011;60570;50.848;6.776;2022-12-11T00:29:17;32.40;;;14.73;;
72547;SDS011;60570;50.848;6.776;2022-12-11T00:30:18;31.63;;;16.02;;
72547;SDS011;60570;50.848;6.776;2022-12-11T00:31:18;29.65;;;14.45;;
72547;SDS011;60570;50.848;6.776;2022-12-11T00:32:20;32.00;;;14.77;;
72547;SDS011;60570;50.848;6.776;2022-12-11T00:33:20;30.60;;;15.35;;
72547;SDS011;60570;50.848;6.776;2022-12-11T00:34:20;29.30;;;14.35;;
72547;SDS011;60570;50.848;6.776;2022-12-11T00:35:21;29.80;;;13.70;;
72547;SDS011;60570;50.848;6.776;2022-12-11T00:36:23;29.92;;;15.10;;
72547;SDS011;60570;50.848;6.776;2022-12-11T00:37:24;28.23;;;13.95;;
72547;SDS011;60570;50.848;6.776;2022-12-11T00:38:25;30.25;;;15.25;;
72547;SDS011;60570;50.848;6.776;2022-12-11T00:39:25;31.58;;;15.07;;
72547;SDS011;60570;50.848;6.776;2022-12-11T00:40:26;29.30;;;14.50;;
72547;SDS011;60570;50.848;6.776;2022-12-11T00:41:26;33.25;;;15.02;;
72547;SDS011;60570;50.848;6.776;2022-12-11T00:42:26;29.77;;;15.15;;
72547;SDS011;60570;50.848;6.776;2022-12-11T00:43:27;28.73;;;14.05;;
72547;SDS011;60570;50.848;6.776;2022-12-11T00:44:27;30.98;;;14.70;;
72547;SDS011;60570;50.848;6.776;2022-12-11T00:45:28;28.98;;;14.45;;
72547;SDS011;60570;50.848;6.776;2022-12-11T00:46:28;28.92;;;13.85;;
72547;SDS011;60570;50.848;6.776;2022-12-11T00:47:29;28.55;;;14.48;;
72547;SDS011;60570;50.848;6.776;2022-12-11T00:48:29;31.33;;;14.90;;
72547;SDS011;60570;50.848;6.776;2022-12-11T00:49:30;27.75;;;13.38;;
72547;SDS011;60570;50.848;6.776;2022-12-11T00:50:30;30.50;;;15.18;;
72547;SDS011;60570;50.848;6.776;2022-12-11T00:51:30;29.70;;;14.38;;
72547;SDS011;60570;50.848;6.776;2022-12-11T00:52:31;29.13;;;14.43;;
72547;SDS011;60570;50.848;6.776;2022-12-11T00:53:31;30.48;;;14.40;;
72547;SDS011;60570;50.848;6.776;2022-12-11T00:54:32;30.65;;;14.75;;
72547;SDS011;60570;50.848;6.776;2022-12-11T00:55:37;29.98;;;14.18;;
72547;SDS011;60570;50.848;6.776;2022-12-11T00:56:38;30.70;;;14.48;;
72547;SDS011;60570;50.848;6.776;2022-12-11T00:57:39;31.35;;;13.88;;
72547;SDS011;60570;50.848;6.776;2022-12-11T00:58:39;27.58;;;13.98;;
72547;SDS011;60570;50.848;6.776;2022-12-11T00:59:40;31.52;;;14.10;;
72547;SDS011;60570;50.848;6.776;2022-12-11T01:00:41;31.00;;;14.68;;
72547;SDS011;60570;50.848;6.776;2022-12-11T01:01:42;29.15;;;14.77;;
72547;SDS011;60570;50.848;6.776;2022-12-11T01:02:43;29.70;;;14.50;;
72547;SDS011;60570;50.848;6.776;2022-12-11T01:03:44;29.20;;;14.55;;
72547;SDS011;60570;50.848;6.776;2022-12-11T01:04:45;30.38;;;14.73;;
72547;SDS011;60570;50.848;6.776;2022-12-11T01:05:52;33.25;;;15.73;;
72547;SDS011;60570;50.848;6.776;2022-12-11T01:06:53;27.35;;;13.30;;
72547;SDS011;60570;50.848;6.776;2022-12-11T01:07:53;31.17;;;14.63;;
72547;SDS011;60570;50.848;6.776;2022-12-11T01:08:55;32.65;;;14.82;;
72547;SDS011;60570;50.848;6.776;2022-12-11T01:10:14;29.48;;;15.23;;
72547;SDS011;60570;50.848;6.776;2022-12-11T01:11:24;30.73;;;14.30;;
72547;SDS011;60570;50.848;6.776;2022-12-11T01:12:24;31.15;;;14.90;;
72547;SDS011;60570;50.848;6.776;2022-12-11T01:13:27;25.45;;;13.38;;
72547;SDS011;60570;50.848;6.776;2022-12-11T01:14:27;26.70;;;13.05;;
72547;SDS011;60570;50.848;6.776;2022-12-11T01:15:29;30.55;;;14.77;;
72547;SDS011;60570;50.848;6.776;2022-12-11T01:16:34;32.40;;;14.20;;
72547;SDS011;60570;50.848;6.776;2022-12-11T01:17:34;30.27;;;15.20;;
72547;SDS011;60570;50.848;6.776;2022-12-11T01:18:35;29.48;;;14.32;;
72547;SDS011;60570;50.848;6.776;2022-12-11T01:19:36;31.17;;;14.75;;
72547;SDS011;60570;50.848;6.776;2022-12-11T01:20:37;27.90;;;14.00;;
72547;SDS011;60570;50.848;6.776;2022-12-11T01:21:39;28.10;;;13.93;;
72547;SDS011;60570;50.848;6.776;2022-12-11T01:22:40;29.05;;;15.32;;
72547;SDS011;60570;50.848;6.776;2022-12-11T01:23:40;31.27;;;14.23;;
72547;SDS011;60570;50.848;6.776;2022-12-11T01:24:41;30.95;;;13.82;;
72547;SDS011;60570;50.848;6.776;2022-12-11T01:25:41;32.67;;;15.13;;
72547;SDS011;60570;50.848;6.776;2022-12-11T01:26:42;28.80;;;13.98;;
72547;SDS011;60570;50.848;6.776;2022-12-11T01:27:43;27.13;;;14.10;;
72547;SDS011;60570;50.848;6.776;2022-12-11T01:28:43;27.73;;;14.35;;
72547;SDS011;60570;50.848;6.776;2022-12-11T01:29:44;26.88;;;13.38;;
72547;SDS011;60570;50.848;6.776;2022-12-11T01:30:44;28.25;;;15.30;;
72547;SDS011;60570;50.848;6.776;2022-12-11T01:31:45;31.63;;;14.77;;
72547;SDS011;60570;50.848;6.776;2022-12-11T01:32:45;27.70;;;13.18;;
72547;SDS011;60570;50.848;6.776;2022-12-11T01:33:46;30.50;;;14.52;;
72547;SDS011;60570;50.848;6.776;2022-12-11T01:34:47;29.77;;;13.95;;
72547;SDS011;60570;50.848;6.776;2022-12-11T01:35:47;27.50;;;13.85;;
72547;SDS011;60570;50.848;6.776;2022-12-11T01:36:48;28.40;;;14.40;;
72547;SDS011;60570;50.848;6.776;2022-12-11T01:37:50;30.75;;;14.18;;
72547;SDS011;60570;50.848;6.776;2022-12-11T01:38:51;28.48;;;13.52;;
72547;SDS011;60570;50.848;6.776;2022-12-11T01:39:53;29.92;;;13.40;;
72547;SDS011;60570;50.848;6.776;2022-12-11T01:40:53;29.35;;;12.98;;
72547;SDS011;60570;50.848;6.776;2022-12-11T01:41:57;26.70;;;13.68;;
72547;SDS011;60570;50.848;6.776;2022-12-11T01:46:33;30.23;;;13.82;;
72547;SDS011;60570;50.848;6.776;2022-12-11T01:47:35;27.50;;;12.65;;
72547;SDS011;60570;50.848;6.776;2022-12-11T01:48:35;27.02;;;14.23;;
72547;SDS011;60570;50.848;6.776;2022-12-11T01:49:36;29.48;;;13.02;;
72547;SDS011;60570;50.848;6.776;2022-12-11T01:50:40;33.78;;;15.05;;
72547;SDS011;60570;50.848;6.776;2022-12-11T01:52:51;27.60;;;13.05;;
72547;SDS011;60570;50.848;6.776;2022-12-11T01:53:53;27.17;;;13.32;;
72547;SDS011;60570;50.848;6.776;2022-12-11T01:54:58;27.58;;;13.65;;
72547;SDS011;60570;50.848;6.776;2022-12-11T01:55:59;31.45;;;14.77;;
72547;SDS011;60570;50.848;6.776;2022-12-11T01:57:01;29.98;;;14.38;;
72547;SDS011;60570;50.848;6.776;2022-12-11T01:58:05;28.95;;;13.93;;
72547;SDS011;60570;50.848;6.776;2022-12-11T01:59:07;29.40;;;14.25;;
72547;SDS011;60570;50.848;6.776;2022-12-11T02:00:09;29.40;;;14.18;;
72547;SDS011;60570;50.848;6.776;2022-12-11T02:01:11;31.35;;;14.13;;
72547;SDS011;60570;50.848;6.776;2022-12-11T02:02:21;27.75;;;13.40;;
72547;SDS011;60570;50.848;6.776;2022-12-11T02:03:26;31.00;;;13.00;;
72547;SDS011;60570;50.848;6.776;2022-12-11T02:04:27;30.40;;;14.20;;
72547;SDS011;60570;50.848;6.776;2022-12-11T02:05:28;29.98;;;13.38;;
72547;SDS011;60570;50.848;6.776;2022-12-11T02:06:42;32.70;;;15.32;;
72547;SDS011;60570;50.848;6.776;2022-12-11T02:07:48;27.27;;;13.07;;
72547;SDS011;60570;50.848;6.776;2022-12-11T02:08:51;29.45;;;13.38;;
72547;SDS011;60570;50.848;6.776;2022-12-11T02:09:51;32.67;;;14.57;;
72547;SDS011;60570;50.848;6.776;2022-12-11T02:11:12;28.08;;;12.95;;
72547;SDS011;60570;50.848;6.776;2022-12-11T02:18:16;30.45;;;14.40;;
72547;SDS011;60570;50.848;6.776;2022-12-11T02:20:54;28.65;;;13.43;;
72547;SDS011;60570;50.848;6.776;2022-12-11T02:21:57;30.17;;;13.63;;
72547;SDS011;60570;50.848;6.776;2022-12-11T02:25:51;29.33;;;13.05;;
72547;SDS011;60570;50.848;6.776;2022-12-11T02:28:34;28.30;;;12.38;;
72547;SDS011;60570;50.848;6.776;2022-12-11T02:30:48;30.33;;;13.43;;
72547;SDS011;60570;50.848;6.776;2022-12-11T02:31:55;29.02;;;13.20;;
72547;SDS011;60570;50.848;6.776;2022-12-11T02:33:01;29.08;;;13.23;;
72547;SDS011;60570;50.848;6.776;2022-12-11T02:36:37;31.30;;;13.80;;
72547;SDS011;60570;50.848;6.776;2022-12-11T02:37:41;29.60;;;14.60;;
72547;SDS011;60570;50.848;6.776;2022-12-11T02:38:44;28.88;;;14.00;;
72547;SDS011;60570;50.848;6.776;2022-12-11T02:39:50;30.10;;;14.10;;
72547;SDS011;60570;50.848;6.776;2022-12-11T02:40:54;27.48;;;14.25;;
72547;SDS011;60570;50.848;6.776;2022-12-11T02:41:57;29.73;;;13.90;;
72547;SDS011;60570;50.848;6.776;2022-12-11T02:43:00;26.38;;;12.82;;
72547;SDS011;60570;50.848;6.776;2022-12-11T02:45:05;29.30;;;13.30;;
72547;SDS011;60570;50.848;6.776;2022-12-11T02:46:08;30.70;;;14.18;;
72547;SDS011;60570;50.848;6.776;2022-12-11T02:47:11;27.33;;;13.10;;
72547;SDS011;60570;50.848;6.776;2022-12-11T02:48:13;29.35;;;13.40;;
72547;SDS011;60570;50.848;6.776;2022-12-11T02:49:15;28.10;;;13.77;;
72547;SDS011;60570;50.848;6.776;2022-12-11T02:50:20;28.55;;;14.18;;
72547;SDS011;60570;50.848;6.776;2022-12-11T02:51:28;28.67;;;13.68;;
72547;SDS011;60570;50.848;6.776;2022-12-11T02:52:31;31.13;;;14.65;;
72547;SDS011;60570;50.848;6.776;2022-12-11T02:53:34;27.83;;;13.07;;
72547;SDS011;60570;50.848;6.776;2022-12-11T02:54:37;30.92;;;14.38;;
72547;SDS011;60570;50.848;6.776;2022-12-11T02:55:40;28.25;;;14.57;;
72547;SDS011;60570;50.848;6.776;2022-12-11T02:56:43;29.42;;;14.50;;
72547;SDS011;60570;50.848;6.776;2022-12-11T02:58:54;29.80;;;14.15;;
72547;SDS011;60570;50.848;6.776;2022-12-11T02:59:59;26.88;;;13.00;;
72547;SDS011;60570;50.848;6.776;2022-12-11T03:00:59;29.33;;;13.15;;
72547;SDS011;60570;50.848;6.776;2022-12-11T03:02:00;26.50;;;12.80;;
72547;SDS011;60570;50.848;6.776;2022-12-11T03:03:02;33.75;;;14.18;;
72547;SDS011;60570;50.848;6.776;2022-12-11T03:04:02;29.63;;;13.63;;
72547;SDS011;60570;50.848;6.776;2022-12-11T03:05:03;28.33;;;14.10;;
72547;SDS011;60570;50.848;6.776;2022-12-11T03:06:04;26.73;;;12.88;;
72547;SDS011;60570;50.848;6.776;2022-12-11T03:07:12;29.55;;;13.65;;
72547;SDS011;60570;50.848;6.776;2022-12-11T03:08:17;31.75;;;13.02;;
72547;SDS011;60570;50.848;6.776;2022-12-11T03:09:17;29.02;;;13.27;;
72547;SDS011;60570;50.848;6.776;2022-12-11T03:10:19;27.35;;;10.88;;
72547;SDS011;60570;50.848;6.776;2022-12-11T03:11:19;26.30;;;12.25;;
72547;SDS011;60570;50.848;6.776;2022-12-11T03:12:23;29.55;;;13.85;;
72547;SDS011;60570;50.848;6.776;2022-12-11T03:13:28;33.35;;;14.27;;
72547;SDS011;60570;50.848;6.776;2022-12-11T03:14:28;29.35;;;13.43;;
72547;SDS011;60570;50.848;6.776;2022-12-11T03:15:40;28.13;;;13.30;;
72547;SDS011;60570;50.848;6.776;2022-12-11T03:16:56;27.35;;;12.63;;
72547;SDS011;60570;50.848;6.776;2022-12-11T03:18:12;27.95;;;12.57;;
72547;SDS011;60570;50.848;6.776;2022-12-11T03:19:22;28.25;;;13.48;;
72547;SDS011;60570;50.848;6.776;2022-12-11T03:24:40;28.00;;;12.23;;
72547;SDS011;60570;50.848;6.776;2022-12-11T03:25:53;28.35;;;12.35;;
72547;SDS011;60570;50.848;6.776;2022-12-11T03:26:55;28.40;;;12.65;;
72547;SDS011;60570;50.848;6.776;2022-12-11T03:29:11;24.65;;;11.25;;
72547;SDS011;60570;50.848;6.776;2022-12-11T03:30:20;25.13;;;11.95;;
72547;SDS011;60570;50.848;6.776;2022-12-11T03:32:30;31.42;;;12.55;;
72547;SDS011;60570;50.848;6.776;2022-12-11T03:33:41;28.08;;;13.05;;
72547;SDS011;60570;50.848;6.776;2022-12-11T03:34:53;26.48;;;12.77;;
72547;SDS011;60570;50.848;6.776;2022-12-11T03:36:03;26.38;;;11.95;;
72547;SDS011;60570;50.848;6.776;2022-12-11T03:37:10;26.70;;;12.85;;
72547;SDS011;60570;50.848;6.776;2022-12-11T03:38:17;28.88;;;12.45;;
72547;SDS011;60570;50.848;6.776;2022-12-11T03:39:28;27.67;;;12.25;;
72547;SDS011;60570;50.848;6.776;2022-12-11T03:40:32;26.33;;;13.07;;
72547;SDS011;60570;50.848;6.776;2022-12-11T03:41:35;29.17;;;13.35;;
72547;SDS011;60570;50.848;6.776;2022-12-11T03:42:42;27.25;;;12.85;;
72547;SDS011;60570;50.848;6.776;2022-12-11T03:43:45;26.50;;;12.88;;
72547;SDS011;60570;50.848;6.776;2022-12-11T03:44:50;27.25;;;12.27;;
72547;SDS011;60570;50.848;6.776;2022-12-11T03:45:55;27.65;;;13.18;;
72547;SDS011;60570;50.848;6.776;2022-12-11T03:46:59;26.80;;;12.65;;
72547;SDS011;60570;50.848;6.776;2022-12-11T03:48:03;26.20;;;12.07;;
72547;SDS011;60570;50.848;6.776;2022-12-11T03:49:07;26.45;;;11.73;;
72547;SDS011;60570;50.848;6.776;2022-12-11T03:50:12;26.63;;;12.98;;
72547;SDS011;60570;50.848;6.776;2022-12-11T03:51:15;28.20;;;12.90;;
72547;SDS011;60570;50.848;6.776;2022-12-11T03:52:16;27.42;;;12.73;;
72547;SDS011;60570;50.848;6.776;2022-12-11T03:53:18;26.90;;;13.20;;
72547;SDS011;60570;50.848;6.776;2022-12-11T03:54:20;29.55;;;13.75;;
72547;SDS011;60570;50.848;6.776;2022-12-11T03:55:23;27.83;;;12.68;;
72547;SDS011;60570;50.848;6.776;2022-12-11T03:56:25;28.40;;;13.40;;
72547;SDS011;60570;50.848;6.776;2022-12-11T03:57:30;27.95;;;12.60;;
72547;SDS011;60570;50.848;6.776;2022-12-11T03:59:34;29.08;;;11.68;;
72547;SDS011;60570;50.848;6.776;2022-12-11T04:00:35;27.55;;;11.63;;
72547;SDS011;60570;50.848;6.776;2022-12-11T04:01:36;28.60;;;12.00;;
72547;SDS011;60570;50.848;6.776;2022-12-11T04:02:37;25.67;;;11.88;;
72547;SDS011;60570;50.848;6.776;2022-12-11T04:03:37;25.15;;;11.88;;
72547;SDS011;60570;50.848;6.776;2022-12-11T04:04:39;25.60;;;12.02;;
72547;SDS011;60570;50.848;6.776;2022-12-11T04:05:41;24.52;;;11.80;;
72547;SDS011;60570;50.848;6.776;2022-12-11T04:06:49;27.45;;;11.65;;
72547;SDS011;60570;50.848;6.776;2022-12-11T04:07:50;26.77;;;11.98;;
72547;SDS011;60570;50.848;6.776;2022-12-11T04:08:50;25.63;;;11.85;;
72547;SDS011;60570;50.848;6.776;2022-12-11T04:09:51;29.95;;;12.52;;
72547;SDS011;60570;50.848;6.776;2022-12-11T04:10:51;31.85;;;13.30;;
72547;SDS011;60570;50.848;6.776;2022-12-11T04:12:10;25.27;;;11.68;;
72547;SDS011;60570;50.848;6.776;2022-12-11T04:13:11;26.55;;;12.77;;
72547;SDS011;60570;50.848;6.776;2022-12-11T04:14:12;23.33;;;11.57;;
72547;SDS011;60570;50.848;6.776;2022-12-11T04:15:31;24.90;;;11.27;;
72547;SDS011;60570;50.848;6.776;2022-12-11T04:16:32;25.00;;;12.38;;
72547;SDS011;60570;50.848;6.776;2022-12-11T04:17:34;29.15;;;12.18;;
72547;SDS011;60570;50.848;6.776;2022-12-11T04:18:54;25.75;;;11.45;;
72547;SDS011;60570;50.848;6.776;2022-12-11T04:20:13;27.50;;;11.02;;
72547;SDS011;60570;50.848;6.776;2022-12-11T04:21:32;23.63;;;11.02;;
72547;SDS011;60570;50.848;6.776;2022-12-11T04:22:50;25.98;;;12.40;;
72547;SDS011;60570;50.848;6.776;2022-12-11T04:24:09;28.20;;;11.38;;
72547;SDS011;60570;50.848;6.776;2022-12-11T04:25:16;26.75;;;12.38;;
72547;SDS011;60570;50.848;6.776;2022-12-11T04:26:17;25.23;;;12.07;;
72547;SDS011;60570;50.848;6.776;2022-12-11T04:27:19;25.80;;;12.07;;
72547;SDS011;60570;50.848;6.776;2022-12-11T04:28:38;22.83;;;10.85;;
72547;SDS011;60570;50.848;6.776;2022-12-11T04:29:41;25.27;;;11.75;;
72547;SDS011;60570;50.848;6.776;2022-12-11T04:30:46;25.70;;;11.85;;
72547;SDS011;60570;50.848;6.776;2022-12-11T04:31:48;26.35;;;11.82;;
72547;SDS011;60570;50.848;6.776;2022-12-11T04:32:51;23.02;;;11.55;;
72547;SDS011;60570;50.848;6.776;2022-12-11T04:33:53;24.90;;;11.20;;
72547;SDS011;60570;50.848;6.776;2022-12-11T04:34:53;25.95;;;11.63;;
72547;SDS011;60570;50.848;6.776;2022-12-11T04:35:56;27.98;;;12.27;;
72547;SDS011;60570;50.848;6.776;2022-12-11T04:36:57;23.83;;;11.85;;
72547;SDS011;60570;50.848;6.776;2022-12-11T04:37:57;25.02;;;11.50;;
72547;SDS011;60570;50.848;6.776;2022-12-11T04:38:58;25.60;;;11.32;;
72547;SDS011;60570;50.848;6.776;2022-12-11T04:39:58;25.08;;;11.10;;
72547;SDS011;60570;50.848;6.776;2022-12-11T04:40:59;21.92;;;10.85;;
72547;SDS011;60570;50.848;6.776;2022-12-11T04:42:02;22.55;;;11.30;;
72547;SDS011;60570;50.848;6.776;2022-12-11T04:43:02;27.98;;;12.45;;
72547;SDS011;60570;50.848;6.776;2022-12-11T04:44:03;26.42;;;11.85;;
72547;SDS011;60570;50.848;6.776;2022-12-11T04:45:04;23.40;;;10.98;;
72547;SDS011;60570;50.848;6.776;2022-12-11T04:46:08;25.40;;;11.88;;
72547;SDS011;60570;50.848;6.776;2022-12-11T04:47:10;24.63;;;11.48;;
72547;SDS011;60570;50.848;6.776;2022-12-11T04:48:10;22.73;;;11.00;;
72547;SDS011;60570;50.848;6.776;2022-12-11T04:49:11;24.70;;;12.02;;
72547;SDS011;60570;50.848;6.776;2022-12-11T04:50:11;23.27;;;10.90;;
72547;SDS011;60570;50.848;6.776;2022-12-11T04:51:13;24.13;;;11.43;;
72547;SDS011;60570;50.848;6.776;2022-12-11T04:52:14;26.10;;;11.30;;
72547;SDS011;60570;50.848;6.776;2022-12-11T04:53:17;23.98;;;10.88;;
72547;SDS011;60570;50.848;6.776;2022-12-11T04:54:17;25.08;;;12.27;;
72547;SDS011;60570;50.848;6.776;2022-12-11T04:55:17;21.73;;;10.43;;
72547;SDS011;60570;50.848;6.776;2022-12-11T04:56:18;24.52;;;11.40;;
72547;SDS011;60570;50.848;6.776;2022-12-11T04:57:19;41.17;;;12.25;;
72547;SDS011;60570;50.848;6.776;2022-12-11T04:58:20;25.10;;;10.85;;
72547;SDS011;60570;50.848;6.776;2022-12-11T04:59:21;24.08;;;10.90;;
72547;SDS011;60570;50.848;6.776;2022-12-11T05:00:22;25.20;;;11.15;;
72547;SDS011;60570;50.848;6.776;2022-12-11T05:01:22;22.13;;;10.32;;
72547;SDS011;60570;50.848;6.776;2022-12-11T05:02:23;26.23;;;10.75;;
72547;SDS011;60570;50.848;6.776;2022-12-11T05:03:23;22.13;;;10.70;;
72547;SDS011;60570;50.848;6.776;2022-12-11T05:04:23;23.02;;;11.13;;
72547;SDS011;60570;50.848;6.776;2022-12-11T05:05:24;28.38;;;12.32;;
72547;SDS011;60570;50.848;6.776;2022-12-11T05:06:25;23.10;;;10.50;;
72547;SDS011;60570;50.848;6.776;2022-12-11T05:07:25;23.48;;;10.65;;
72547;SDS011;60570;50.848;6.776;2022-12-11T05:08:25;21.98;;;10.93;;
72547;SDS011;60570;50.848;6.776;2022-12-11T05:09:26;24.83;;;11.48;;
72547;SDS011;60570;50.848;6.776;2022-12-11T05:10:27;24.50;;;11.13;;
72547;SDS011;60570;50.848;6.776;2022-12-11T05:11:27;22.40;;;10.95;;
72547;SDS011;60570;50.848;6.776;2022-12-11T05:12:28;24.27;;;10.68;;
72547;SDS011;60570;50.848;6.776;2022-12-11T05:13:29;24.48;;;10.55;;
72547;SDS011;60570;50.848;6.776;2022-12-11T05:14:29;22.55;;;10.20;;
72547;SDS011;60570;50.848;6.776;2022-12-11T05:15:31;24.27;;;11.38;;
72547;SDS011;60570;50.848;6.776;2022-12-11T05:16:31;23.98;;;10.45;;
72547;SDS011;60570;50.848;6.776;2022-12-11T05:17:32;24.20;;;10.27;;
72547;SDS011;60570;50.848;6.776;2022-12-11T05:18:33;22.33;;;10.68;;
72547;SDS011;60570;50.848;6.776;2022-12-11T05:19:33;22.60;;;10.30;;
72547;SDS011;60570;50.848;6.776;2022-12-11T05:20:34;23.85;;;10.75;;
72547;SDS011;60570;50.848;6.776;2022-12-11T05:21:34;21.23;;;11.23;;
72547;SDS011;60570;50.848;6.776;2022-12-11T05:22:35;23.60;;;10.77;;
72547;SDS011;60570;50.848;6.776;2022-12-11T05:23:36;25.63;;;11.50;;
72547;SDS011;60570;50.848;6.776;2022-12-11T05:24:37;22.92;;;10.45;;
72547;SDS011;60570;50.848;6.776;2022-12-11T05:25:38;23.58;;;10.80;;
72547;SDS011;60570;50.848;6.776;2022-12-11T05:26:38;22.30;;;10.55;;
72547;SDS011;60570;50.848;6.776;2022-12-11T05:27:39;24.20;;;10.60;;
72547;SDS011;60570;50.848;6.776;2022-12-11T05:28:39;23.08;;;11.10;;
72547;SDS011;60570;50.848;6.776;2022-12-11T05:29:40;21.80;;;10.18;;
72547;SDS011;60570;50.848;6.776;2022-12-11T05:30:41;22.65;;;10.32;;
72547;SDS011;60570;50.848;6.776;2022-12-11T05:31:41;21.98;;;10.50;;
72547;SDS011;60570;50.848;6.776;2022-12-11T05:32:41;23.27;;;10.88;;
72547;SDS011;60570;50.848;6.776;2022-12-11T05:33:42;24.00;;;10.07;;
72547;SDS011;60570;50.848;6.776;2022-12-11T05:34:43;22.92;;;11.18;;
72547;SDS011;60570;50.848;6.776;2022-12-11T05:35:47;24.60;;;10.95;;
72547;SDS011;60570;50.848;6.776;2022-12-11T05:36:48;22.83;;;10.60;;
72547;SDS011;60570;50.848;6.776;2022-12-11T05:37:48;20.80;;;9.73;;
72547;SDS011;60570;50.848;6.776;2022-12-11T05:38:49;21.60;;;10.10;;
72547;SDS011;60570;50.848;6.776;2022-12-11T05:39:50;23.63;;;10.07;;
72547;SDS011;60570;50.848;6.776;2022-12-11T05:40:54;23.05;;;10.57;;
72547;SDS011;60570;50.848;6.776;2022-12-11T05:41:59;23.00;;;10.57;;
72547;SDS011;60570;50.848;6.776;2022-12-11T05:42:59;22.38;;;11.27;;
72547;SDS011;60570;50.848;6.776;2022-12-11T05:44:00;22.77;;;10.82;;
72547;SDS011;60570;50.848;6.776;2022-12-11T05:45:00;23.58;;;10.88;;
72547;SDS011;60570;50.848;6.776;2022-12-11T05:46:11;23.42;;;10.90;;
72547;SDS011;60570;50.848;6.776;2022-12-11T05:47:13;19.90;;;9.52;;
72547;SDS011;60570;50.848;6.776;2022-12-11T05:48:14;21.30;;;10.52;;
72547;SDS011;60570;50.848;6.776;2022-12-11T05:49:14;20.23;;;9.77;;
72547;SDS011;60570;50.848;6.776;2022-12-11T05:50:15;22.05;;;10.48;;
72547;SDS011;60570;50.848;6.776;2022-12-11T05:51:16;22.00;;;9.88;;
72547;SDS011;60570;50.848;6.776;2022-12-11T05:52:18;20.88;;;10.60;;
72547;SDS011;60570;50.848;6.776;2022-12-11T05:53:18;21.98;;;10.55;;
72547;SDS011;60570;50.848;6.776;2022-12-11T05:54:19;20.80;;;10.52;;
72547;SDS011;60570;50.848;6.776;2022-12-11T05:55:19;22.75;;;10.40;;
72547;SDS011;60570;50.848;6.776;2022-12-11T05:56:21;23.98;;;10.30;;
72547;SDS011;60570;50.848;6.776;2022-12-11T05:57:23;20.10;;;9.63;;
72547;SDS011;60570;50.848;6.776;2022-12-11T05:58:24;20.02;;;10.02;;
72547;SDS011;60570;50.848;6.776;2022-12-11T05:59:24;21.77;;;10.32;;
72547;SDS011;60570;50.848;6.776;2022-12-11T06:00:25;21.63;;;9.88;;
72547;SDS011;60570;50.848;6.776;2022-12-11T06:01:26;22.38;;;10.98;;
72547;SDS011;60570;50.848;6.776;2022-12-11T06:02:28;20.08;;;9.95;;
72547;SDS011;60570;50.848;6.776;2022-12-11T06:03:29;19.98;;;9.25;;
72547;SDS011;60570;50.848;6.776;2022-12-11T06:04:29;22.90;;;11.30;;
72547;SDS011;60570;50.848;6.776;2022-12-11T06:05:30;24.05;;;11.57;;
72547;SDS011;60570;50.848;6.776;2022-12-11T06:06:30;19.98;;;9.73;;
72547;SDS011;60570;50.848;6.776;2022-12-11T06:07:32;23.65;;;10.82;;
72547;SDS011;60570;50.848;6.776;2022-12-11T06:08:32;24.40;;;11.00;;
72547;SDS011;60570;50.848;6.776;2022-12-11T06:09:34;21.70;;;10.25;;
72547;SDS011;60570;50.848;6.776;2022-12-11T06:10:34;21.23;;;9.95;;
72547;SDS011;60570;50.848;6.776;2022-12-11T06:11:34;26.60;;;10.88;;
72547;SDS011;60570;50.848;6.776;2022-12-11T06:12:35;20.80;;;10.27;;
72547;SDS011;60570;50.848;6.776;2022-12-11T06:13:35;23.75;;;11.10;;
72547;SDS011;60570;50.848;6.776;2022-12-11T06:14:36;20.85;;;9.95;;
72547;SDS011;60570;50.848;6.776;2022-12-11T06:15:36;22.55;;;10.43;;
72547;SDS011;60570;50.848;6.776;2022-12-11T06:16:37;21.48;;;10.65;;
72547;SDS011;60570;50.848;6.776;2022-12-11T06:17:37;19.60;;;10.05;;
72547;SDS011;60570;50.848;6.776;2022-12-11T06:18:38;20.38;;;9.40;;
72547;SDS011;60570;50.848;6.776;2022-12-11T06:19:40;22.60;;;10.75;;
72547;SDS011;60570;50.848;6.776;2022-12-11T06:20:41;23.40;;;10.85;;
72547;SDS011;60570;50.848;6.776;2022-12-11T06:21:41;22.38;;;10.75;;
72547;SDS011;60570;50.848;6.776;2022-12-11T06:22:42;20.83;;;9.90;;
72547;SDS011;60570;50.848;6.776;2022-12-11T06:23:43;20.70;;;10.52;;
72547;SDS011;60570;50.848;6.776;2022-12-11T06:24:45;23.08;;;10.68;;
72547;SDS011;60570;50.848;6.776;2022-12-11T06:25:45;22.67;;;10.45;;
72547;SDS011;60570;50.848;6.776;2022-12-11T06:26:46;23.45;;;11.27;;
72547;SDS011;60570;50.848;6.776;2022-12-11T06:27:46;21.98;;;10.25;;
72547;SDS011;60570;50.848;6.776;2022-12-11T06:28:46;21.33;;;9.90;;
72547;SDS011;60570;50.848;6.776;2022-12-11T06:29:47;22.88;;;10.52;;
72547;SDS011;60570;50.848;6.776;2022-12-11T06:30:48;21.63;;;10.45;;
72547;SDS011;60570;50.848;6.776;2022-12-11T06:31:48;21.67;;;9.75;;
72547;SDS011;60570;50.848;6.776;2022-12-11T06:32:49;21.38;;;10.38;;
72547;SDS011;60570;50.848;6.776;2022-12-11T06:33:49;20.88;;;10.15;;
72547;SDS011;60570;50.848;6.776;2022-12-11T06:34:49;21.02;;;10.38;;
72547;SDS011;60570;50.848;6.776;2022-12-11T06:35:50;24.88;;;10.63;;